KMML/MML METAR and TAF weather

Enter ICAO airport designator
Station Type Date Time Source
KMML METAR 2018/12/13 19:56 UTC NOAA

KMML 131956Z AUTO 31009KT 10SM CLR 03/M01 A3006 RMK AO2 SLP196 T00281006


Station Type Date Time Source
KMML Decoded METAR 2018/12/13 19:56 UTC NOAA

Marshall, Southwest Minnesota Regional Airport - Marshall/Ryan Field, MN, United States (KMML) 44-27N 095-49W
Dec 13, 2018 - 02:56 PM EST / 2018.12.13 1956 UTC
Wind: from the NW (310 degrees) at 10 MPH (9 KT):0
Visibility: 10 mile(s):0
Sky conditions: clear
Temperature: 37.0 F (2.8 C)
Dew Point: 30.9 F (-0.6 C)
Relative Humidity: 78%
Pressure (altimeter): 30.06 in. Hg (1017 hPa)
ob: KMML 131956Z AUTO 31009KT 10SM CLR 03/M01 A3006 RMK AO2 SLP196 T00281006
cycle: 20

Station Type Date Time Source
KMML TAF UTC NOAA

Error!


Example: see airport list